Time;durP1;ratioP1;P1;durP2;ratioP2;P2;SDS_P1;SDS_P2;PMS_P1;PMS_P2;Temp;Humidity;BMP_temperature;BMP_pressure;BME280_temperature;BME280_humidity;BME280_pressure;Samples;Min_cycle;Max_cycle;Signal;HPM_P1;HPM_P2
2022/05/05 00:01:05;;;;;;;26.17;14.43;;;;;;;12.00;95.50;99014.63;5147974;27;20481;-91
2022/05/05 00:03:31;;;;;;;27.77;14.73;;;;;;;11.82;96.10;99000.00;5146897;27;20450;-90
2022/05/05 00:05:57;;;;;;;31.08;15.30;;;;;;;11.90;95.68;99002.47;5144773;27;20039;-91
2022/05/05 00:08:23;;;;;;;28.63;14.95;;;;;;;11.97;95.22;99020.06;5147918;27;20084;-91
2022/05/05 00:16:47;;;;;;;29.17;14.85;;;;;;;11.75;96.36;99017.06;5151713;27;20382;-91
2022/05/05 00:19:12;;;;;;;29.17;14.95;;;;;;;11.67;96.57;99017.28;5149738;27;20038;-88
2022/05/05 00:21:38;;;;;;;26.88;14.95;;;;;;;11.71;94.95;99010.97;5150436;27;20092;-91
2022/05/05 00:24:05;;;;;;;29.23;14.52;;;;;;;11.70;95.41;99013.66;5150530;27;20038;-91
2022/05/05 00:26:31;;;;;;;23.65;13.55;;;;;;;11.59;96.92;99015.75;5150407;27;20050;-89
2022/05/05 00:28:56;;;;;;;26.45;13.43;;;;;;;11.46;97.06;98996.56;5148906;27;20039;-91
2022/05/05 00:31:22;;;;;;;25.55;14.07;;;;;;;11.49;96.36;99004.47;5150268;27;20043;-91
2022/05/05 00:33:49;;;;;;;25.65;14.35;;;;;;;11.48;96.28;99010.72;5149698;27;20039;-90
2022/05/05 00:36:15;;;;;;;25.60;14.02;;;;;;;11.46;96.76;99013.41;5149993;27;20038;-90
2022/05/05 00:38:41;;;;;;;27.40;15.43;;;;;;;11.34;96.79;99000.41;5150954;27;20527;-91
2022/05/05 00:41:08;;;;;;;29.30;14.52;;;;;;;11.36;96.99;99017.22;5148874;27;20035;-91
2022/05/05 00:43:34;;;;;;;28.85;15.05;;;;;;;11.19;97.57;99000.81;5149583;27;20042;-90
2022/05/05 00:46:00;;;;;;;42.03;14.88;;;;;;;11.13;97.69;98988.56;5149703;27;20038;-90
2022/05/05 00:48:27;;;;;;;27.00;14.50;;;;;;;11.16;98.34;98998.25;5149650;27;20058;-89
2022/05/05 00:50:55;;;;;;;28.50;15.48;;;;;;;11.20;97.41;99006.13;5149994;27;20034;-90
2022/05/05 00:53:22;;;;;;;27.80;14.57;;;;;;;11.20;98.90;99002.59;5148465;27;20049;-92
2022/05/05 00:55:50;;;;;;;28.92;15.52;;;;;;;11.19;98.87;99008.81;5149740;27;20118;-91
2022/05/05 00:58:17;;;;;;;28.33;13.88;;;;;;;10.96;99.20;98975.69;5149805;27;20091;-90
2022/05/05 01:00:42;;;;;;;26.73;14.65;;;;;;;11.04;99.94;98988.81;5149799;27;20054;-91
2022/05/05 01:03:11;;;;;;;33.22;14.98;;;;;;;10.85;99.90;98969.75;5148995;27;20940;-91
2022/05/05 01:05:38;;;;;;;28.95;15.13;;;;;;;10.82;99.39;98962.75;5148948;27;20496;-91
2022/05/05 01:08:06;;;;;;;31.42;15.00;;;;;;;10.96;100.00;98993.44;5150486;27;20019;-92
2022/05/05 01:10:32;;;;;;;26.95;14.00;;;;;;;11.00;99.83;98998.63;5149236;27;20518;-90
2022/05/05 01:13:01;;;;;;;28.17;14.52;;;;;;;10.86;100.00;98972.41;5149159;27;20035;-91
2022/05/05 01:15:28;;;;;;;25.25;13.77;;;;;;;10.98;100.00;98995.16;5149868;27;20461;-90
2022/05/05 01:17:54;;;;;;;29.08;14.57;;;;;;;10.84;99.55;98968.91;5148893;27;20412;-92
2022/05/05 01:20:22;;;;;;;24.77;14.10;;;;;;;10.92;99.91;98989.09;5149712;27;20031;-91
2022/05/05 01:22:49;;;;;;;27.30;13.70;;;;;;;10.84;100.00;98973.31;5148125;27;20062;-90
2022/05/05 01:28:10;;;;;;;28.80;14.35;;;;;;;10.93;99.99;98974.88;5124262;27;20369;-91
2022/05/05 01:30:38;;;;;;;25.17;14.07;;;;;;;10.91;100.00;98972.28;5096091;28;20378;-91
2022/05/05 01:33:10;;;;;;;28.17;14.45;;;;;;;10.91;100.00;98969.63;5100664;28;20067;-91
2022/05/05 01:35:36;;;;;;;28.00;14.52;;;;;;;10.90;100.00;98978.50;5103647;28;20043;-90
2022/05/05 01:38:02;;;;;;;28.70;14.45;;;;;;;10.81;100.00;98960.09;5102426;28;20040;-90
2022/05/05 01:40:29;;;;;;;26.10;14.30;;;;;;;10.97;100.00;98979.22;5099899;28;20128;-89
2022/05/05 01:42:55;;;;;;;28.73;15.88;;;;;;;10.94;100.00;98980.16;5102666;28;20113;-91
2022/05/05 01:45:22;;;;;;;26.77;14.57;;;;;;;10.84;99.39;98970.66;5096820;28;20048;-91
2022/05/05 01:47:48;;;;;;;34.17;16.25;;;;;;;10.84;99.41;98981.28;5097269;28;20043;-90
2022/05/05 01:50:13;;;;;;;33.45;16.17;;;;;;;10.82;100.00;98988.44;5098803;28;20482;-91
2022/05/05 01:52:39;;;;;;;29.80;15.52;;;;;;;10.75;100.00;98987.72;5095473;28;20046;-90
2022/05/05 01:55:05;;;;;;;30.17;13.98;;;;;;;10.74;100.00;98993.97;5098449;28;20044;-90
2022/05/05 01:57:31;;;;;;;29.70;14.90;;;;;;;10.78;100.00;98989.41;5101079;28;20093;-91
2022/05/05 01:59:57;;;;;;;26.63;15.43;;;;;;;10.67;100.00;98981.72;5101268;28;20040;-90
2022/05/05 02:02:24;;;;;;;30.00;14.90;;;;;;;10.74;100.00;98985.97;5099448;28;20508;-90
2022/05/05 02:04:50;;;;;;;27.10;14.73;;;;;;;10.70;100.00;98989.63;5099603;28;20094;-91
2022/05/05 02:07:16;;;;;;;28.52;14.98;;;;;;;10.46;100.00;98964.50;5099270;28;20043;-90
2022/05/05 02:09:41;;;;;;;32.92;15.77;;;;;;;10.59;100.00;99002.31;5099047;28;20032;-91
2022/05/05 02:12:09;;;;;;;30.60;15.43;;;;;;;10.47;100.00;98984.84;5098581;28;20036;-90
2022/05/05 02:14:34;;;;;;;28.95;15.13;;;;;;;10.50;100.00;99007.84;5098675;28;20564;-90
2022/05/05 02:17:00;;;;;;;31.83;15.60;;;;;;;10.31;100.00;98989.66;5100604;28;20143;-90
2022/05/05 02:19:28;;;;;;;31.33;15.45;;;;;;;10.34;100.00;99017.94;5097459;28;20064;-91
2022/05/05 02:21:55;;;;;;;30.85;14.48;;;;;;;10.34;100.00;99021.47;5102024;28;20028;-90
2022/05/05 02:24:20;;;;;;;28.90;14.25;;;;;;;10.30;100.00;99013.59;5103634;28;20051;-92
2022/05/05 02:26:46;;;;;;;29.42;15.32;;;;;;;10.25;100.00;99016.31;5099602;28;20052;-90
2022/05/05 02:29:12;;;;;;;29.98;15.77;;;;;;;10.18;100.00;99001.44;5096734;28;20032;-90
2022/05/05 02:31:38;;;;;;;27.95;15.80;;;;;;;10.20;100.00;99021.75;5098599;28;20093;-90
2022/05/05 02:34:08;;;;;;;30.83;15.70;;;;;;;10.18;100.00;99028.88;5099402;28;20486;-92
2022/05/05 02:39:34;;;;;;;31.70;16.17;;;;;;;10.23;100.00;99018.13;5088742;27;20370;-91
2022/05/05 02:42:00;;;;;;;35.30;15.93;;;;;;;10.26;100.00;99016.28;5088460;28;20437;-90
2022/05/05 02:44:26;;;;;;;33.50;16.35;;;;;;;10.09;100.00;99018.44;5088329;28;20048;-88
2022/05/05 02:46:52;;;;;;;35.55;16.73;;;;;;;10.11;100.00;99031.72;5088587;28;20079;-89
2022/05/05 02:49:17;;;;;;;32.72;16.77;;;;;;;9.97;100.00;99019.56;5088552;28;20059;-89
2022/05/05 02:51:45;;;;;;;34.47;17.17;;;;;;;9.97;100.00;99024.88;5087761;28;20032;-88
2022/05/05 02:57:06;;;;;;;39.85;21.55;;;;;;;9.96;100.00;99028.44;5087062;27;20392;-91
2022/05/05 02:59:32;;;;;;;42.50;22.40;;;;;;;9.95;100.00;99015.19;5086440;28;20393;-92
2022/05/05 03:01:58;;;;;;;30.38;16.67;;;;;;;10.02;100.00;99022.13;5086723;28;20039;-90
2022/05/05 03:04:24;;;;;;;33.22;16.48;;;;;;;9.99;100.00;99031.03;5088279;28;20082;-91
2022/05/05 03:06:50;;;;;;;33.00;16.35;;;;;;;9.94;100.00;99024.06;5088403;28;20080;-92
2022/05/05 03:09:15;;;;;;;33.20;17.40;;;;;;;9.88;100.00;99017.97;5088487;28;20050;-91
2022/05/05 03:11:41;;;;;;;34.67;17.35;;;;;;;9.95;100.00;99024.03;5087239;28;20499;-90
2022/05/05 03:14:08;;;;;;;36.50;17.35;;;;;;;9.85;100.00;99009.19;5087052;28;20033;-92
2022/05/05 03:16:34;;;;;;;34.10;16.35;;;;;;;9.97;100.00;99027.53;5088087;28;20481;-91
2022/05/05 03:19:00;;;;;;;32.28;16.42;;;;;;;9.95;100.00;99052.38;5088439;28;20120;-90
2022/05/05 03:21:25;;;;;;;30.45;16.95;;;;;;;9.99;100.00;99048.75;5087894;28;20048;-91
2022/05/05 03:23:51;;;;;;;34.92;15.98;;;;;;;9.90;100.00;99043.63;5088316;28;20726;-91
2022/05/05 03:26:17;;;;;;;35.42;17.83;;;;;;;10.01;100.00;99058.44;5088803;28;20040;-90
2022/05/05 03:28:43;;;;;;;32.40;15.98;;;;;;;9.99;100.00;99054.06;5087960;28;21605;-90
2022/05/05 03:31:10;;;;;;;32.30;16.50;;;;;;;9.81;100.00;99040.25;5087564;28;20040;-90
2022/05/05 03:33:36;;;;;;;36.05;17.23;;;;;;;9.86;100.00;99054.31;5087904;28;20056;-90
2022/05/05 03:36:03;;;;;;;32.03;15.98;;;;;;;9.99;100.00;99070.88;5087615;28;20062;-90
2022/05/05 03:38:28;;;;;;;31.02;16.13;;;;;;;9.96;100.00;99062.13;5088121;28;20086;-90
2022/05/05 03:40:54;;;;;;;29.88;15.23;;;;;;;9.90;100.00;99048.94;5087934;28;20445;-91
2022/05/05 03:43:20;;;;;;;33.88;15.75;;;;;;;9.98;100.00;99047.03;5087295;28;20044;-91
2022/05/05 03:45:46;;;;;;;28.00;14.73;;;;;;;9.84;100.00;99024.25;5087582;28;20043;-90
2022/05/05 03:48:13;;;;;;;31.25;15.73;;;;;;;9.88;100.00;99039.22;5087492;28;20090;-92
2022/05/05 03:50:39;;;;;;;31.48;16.38;;;;;;;9.82;100.00;99025.19;5087496;28;20034;-90
2022/05/05 03:53:05;;;;;;;31.58;16.80;;;;;;;9.94;100.00;99018.75;5087571;28;20036;-91
2022/05/05 03:55:31;;;;;;;32.22;15.77;;;;;;;9.90;100.00;99025.03;5087199;28;20426;-91
2022/05/05 03:57:57;;;;;;;32.92;16.67;;;;;;;10.00;100.00;99018.66;5087698;28;20044;-90
2022/05/05 04:00:23;;;;;;;32.83;16.48;;;;;;;10.06;100.00;99007.84;5087530;28;20107;-90
2022/05/05 04:05:44;;;;;;;34.90;16.75;;;;;;;10.17;100.00;99029.78;5129902;27;20416;-91
2022/05/05 04:08:10;;;;;;;32.78;17.63;;;;;;;10.11;100.00;99018.41;5129857;28;20074;-91
2022/05/05 04:10:36;;;;;;;29.60;15.90;;;;;;;10.14;100.00;99029.84;5130404;27;20488;-91
2022/05/05 04:13:02;;;;;;;35.22;17.05;;;;;;;10.06;100.00;99035.31;5129069;27;20028;-89
2022/05/05 04:15:29;;;;;;;35.47;17.13;;;;;;;10.04;100.00;99030.94;5129758;27;20042;-90
2022/05/05 04:17:55;;;;;;;34.40;17.00;;;;;;;9.99;100.00;99028.38;5129440;27;20031;-91
2022/05/05 04:20:21;;;;;;;30.33;14.63;;;;;;;10.03;100.00;99039.81;5129428;27;20043;-90
2022/05/05 04:22:49;;;;;;;36.33;15.98;;;;;;;10.12;100.00;99046.72;5128398;28;20031;-91
2022/05/05 04:25:16;;;;;;;33.40;16.50;;;;;;;10.04;100.00;99031.81;5127863;28;20046;-90
2022/05/05 04:27:42;;;;;;;32.55;16.70;;;;;;;10.12;100.00;99028.13;5128619;28;20050;-90
2022/05/05 04:30:09;;;;;;;31.08;16.08;;;;;;;10.07;100.00;99022.91;5128396;28;20035;-91
2022/05/05 04:32:35;;;;;;;29.02;14.88;;;;;;;10.13;100.00;99046.69;5127481;28;20054;-90
2022/05/05 04:35:01;;;;;;;31.55;15.65;;;;;;;10.13;100.00;99064.41;5129671;27;20043;-90
2022/05/05 04:37:27;;;;;;;33.33;17.17;;;;;;;10.09;100.00;99066.28;5129456;27;20046;-91
2022/05/05 04:39:54;;;;;;;35.08;16.73;;;;;;;10.18;100.00;99082.03;5129089;28;20055;-91
2022/05/05 04:42:20;;;;;;;37.10;17.38;;;;;;;10.12;100.00;99054.69;5129597;27;20041;-92
2022/05/05 04:44:46;;;;;;;34.05;17.70;;;;;;;10.22;100.00;99062.44;5128751;28;20178;-91
2022/05/05 04:47:12;;;;;;;29.77;15.52;;;;;;;10.32;100.00;99068.47;5129559;27;20139;-89
2022/05/05 04:49:37;;;;;;;32.80;15.68;;;;;;;10.39;100.00;99072.75;5128639;28;20500;-90
2022/05/05 04:52:04;;;;;;;29.40;14.80;;;;;;;10.43;100.00;99078.88;5128818;27;20493;-90
2022/05/05 04:54:30;;;;;;;30.58;15.63;;;;;;;10.38;100.00;99064.81;5127698;28;20492;-92
2022/05/05 04:56:57;;;;;;;30.30;16.48;;;;;;;10.48;100.00;99088.50;5128848;28;20061;-92
2022/05/05 04:59:23;;;;;;;35.38;16.45;;;;;;;10.53;100.00;99079.56;5128234;28;20046;-91
2022/05/05 05:01:48;;;;;;;39.22;17.33;;;;;;;10.64;100.00;99070.41;5128267;27;20039;-91
2022/05/05 05:04:14;;;;;;;30.40;15.20;;;;;;;10.65;100.00;99081.97;5129396;27;20130;-91
2022/05/05 05:06:40;;;;;;;34.25;16.42;;;;;;;10.65;100.00;99073.97;5128651;27;20122;-90
2022/05/05 05:09:05;;;;;;;32.03;15.40;;;;;;;10.68;100.00;99072.09;5128749;27;20035;-90
2022/05/05 05:11:31;;;;;;;29.25;14.88;;;;;;;10.75;100.00;99070.19;5127932;27;20053;-91
2022/05/05 05:13:59;;;;;;;32.53;14.90;;;;;;;10.88;100.00;99082.28;5128841;27;20032;-90
2022/05/05 05:16:25;;;;;;;35.08;16.02;;;;;;;10.89;100.00;99073.41;5118187;28;20035;-90
2022/05/05 05:18:53;;;;;;;33.95;15.50;;;;;;;11.02;100.00;99078.44;5114505;28;20032;-90
2022/05/05 05:21:19;;;;;;;32.13;16.50;;;;;;;11.05;99.46;99065.06;5114395;27;20122;-91
2022/05/05 05:23:45;;;;;;;36.65;16.00;;;;;;;11.11;99.42;99064.91;5113728;28;20120;-92
2022/05/05 05:26:10;;;;;;;31.45;16.25;;;;;;;11.21;99.70;99069.09;5114570;28;20043;-92
2022/05/05 05:28:36;;;;;;;32.47;15.70;;;;;;;11.29;99.17;99060.91;5113608;28;20036;-91
2022/05/05 05:31:04;;;;;;;30.38;15.30;;;;;;;11.40;98.58;99071.28;5114741;28;20031;-91
2022/05/05 05:33:29;;;;;;;31.55;16.02;;;;;;;11.48;97.71;99080.81;5114782;28;20040;-91
2022/05/05 05:35:55;;;;;;;34.92;16.40;;;;;;;11.56;97.61;99077.06;5114018;28;20050;-91
2022/05/05 05:38:21;;;;;;;34.88;17.15;;;;;;;11.60;96.90;99074.31;5113110;28;20044;-92
2022/05/05 05:40:47;;;;;;;31.98;15.93;;;;;;;11.59;96.39;99061.03;5112056;28;20039;-91
2022/05/05 05:43:13;;;;;;;28.38;15.40;;;;;;;11.49;96.08;99061.28;5114087;28;20443;-91
2022/05/05 05:45:39;;;;;;;30.58;15.63;;;;;;;11.32;97.84;99058.19;5112450;28;20028;-91
2022/05/05 05:48:07;;;;;;;30.70;16.08;;;;;;;11.24;97.54;99031.75;5113870;28;20401;-91
2022/05/05 05:50:33;;;;;;;27.27;15.32;;;;;;;11.30;98.12;99034.25;5114070;28;20092;-91
2022/05/05 05:53:00;;;;;;;31.80;16.27;;;;;;;11.44;98.31;99056.97;5114587;28;20040;-91
2022/05/05 05:55:26;;;;;;;33.00;16.70;;;;;;;11.34;98.06;99032.38;5114392;27;20047;-91
2022/05/05 05:57:52;;;;;;;29.27;15.00;;;;;;;11.55;97.62;99049.56;5112662;28;20032;-91
2022/05/05 06:00:18;;;;;;;29.73;15.40;;;;;;;11.43;96.40;99034.81;5114281;28;20052;-90
2022/05/05 06:05:45;;;;;;;28.48;15.07;;;;;;;11.36;96.89;99065.16;5088159;27;21288;-91
2022/05/05 06:08:11;;;;;;;28.02;14.80;;;;;;;11.34;97.55;99066.09;5089485;28;20101;-90
2022/05/05 06:10:37;;;;;;;37.38;15.75;;;;;;;11.30;97.00;99050.22;5089334;28;20036;-92
2022/05/05 06:13:03;;;;;;;36.30;15.55;;;;;;;11.42;96.62;99072.13;5088858;28;20040;-90
2022/05/05 06:15:29;;;;;;;27.73;14.98;;;;;;;11.40;97.68;99060.63;5088453;28;20062;-91
2022/05/05 06:17:56;;;;;;;29.50;14.93;;;;;;;11.66;97.51;99071.47;5089249;28;20115;-92
2022/05/05 06:20:22;;;;;;;31.80;16.58;;;;;;;11.81;96.66;99064.00;5088810;28;20028;-91
2022/05/05 06:22:51;;;;;;;33.63;16.00;;;;;;;11.85;95.70;99052.34;5087875;28;20086;-91
2022/05/05 06:25:19;;;;;;;36.30;17.50;;;;;;;11.99;95.10;99063.53;5088273;28;20502;-91
2022/05/05 06:27:45;;;;;;;32.15;16.30;;;;;;;12.08;93.95;99057.06;5088030;28;20111;-91
2022/05/05 06:30:13;;;;;;;34.67;17.65;;;;;;;12.18;93.07;99073.66;5088404;28;20148;-91
2022/05/05 06:32:38;;;;;;;35.28;17.88;;;;;;;12.24;92.51;99057.47;5088600;28;20166;-91
2022/05/05 06:35:05;;;;;;;40.20;17.80;;;;;;;12.38;92.29;99071.25;5086812;28;20052;-92
2022/05/05 06:37:31;;;;;;;29.77;15.95;;;;;;;12.53;91.58;99072.59;5089382;28;20040;-91
2022/05/05 06:40:00;;;;;;;36.00;15.55;;;;;;;12.53;91.22;99057.50;5088783;28;20432;-92
2022/05/05 06:42:26;;;;;;;30.15;15.95;;;;;;;12.65;90.62;99053.56;5087332;28;20051;-91
2022/05/05 06:44:52;;;;;;;30.88;15.70;;;;;;;12.75;89.28;99056.81;5090248;28;20453;-90
2022/05/05 06:47:19;;;;;;;27.23;14.45;;;;;;;12.81;90.44;99061.09;5087445;28;20071;-92
2022/05/05 06:49:44;;;;;;;27.98;13.80;;;;;;;12.95;89.10;99065.06;5086723;28;20089;-92
2022/05/05 06:52:10;;;;;;;25.83;14.52;;;;;;;13.12;88.17;99069.88;5088101;28;20037;-91
2022/05/05 06:54:36;;;;;;;27.80;14.00;;;;;;;13.17;87.54;99069.72;5087951;28;20479;-91
2022/05/05 06:57:04;;;;;;;27.27;15.07;;;;;;;13.20;87.05;99061.59;5092069;28;20040;-92
2022/05/05 06:59:30;;;;;;;28.15;15.65;;;;;;;13.28;86.53;99074.72;5088089;28;20093;-92
2022/05/05 07:02:00;;;;;;;30.38;14.82;;;;;;;13.31;86.62;99079.97;5088378;28;20506;-91
2022/05/05 07:07:22;;;;;;;23.48;13.65;;;;;;;13.61;85.60;99090.56;5123984;27;20367;-91
2022/05/05 07:12:34;;;;;;;29.45;15.00;;;;;;;13.57;85.31;99089.78;5121998;28;20036;-92
2022/05/05 07:15:00;;;;;;;28.63;14.73;;;;;;;13.50;85.82;99089.09;5120554;28;20723;-92
2022/05/05 07:17:26;;;;;;;28.60;15.88;;;;;;;13.44;86.07;99085.78;5124650;27;20513;-90
2022/05/05 07:19:53;;;;;;;28.92;15.23;;;;;;;13.36;85.87;99075.38;5121441;27;20509;-93
2022/05/05 07:22:19;;;;;;;30.88;16.52;;;;;;;13.38;85.29;99097.56;5120749;27;20085;-89
2022/05/05 07:24:46;;;;;;;29.20;15.00;;;;;;;13.19;85.72;99070.53;5118260;27;20062;-92
2022/05/05 07:27:13;;;;;;;30.77;15.68;;;;;;;13.24;85.65;99089.09;5125249;27;20040;-92
2022/05/05 07:29:40;;;;;;;31.65;16.05;;;;;;;13.28;85.62;99099.66;5119532;28;20032;-93
2022/05/05 07:32:07;;;;;;;30.13;16.30;;;;;;;13.37;85.61;99118.97;5125103;27;20047;-91
2022/05/05 07:34:34;;;;;;;35.70;15.88;;;;;;;13.23;85.70;99104.25;5118681;28;20043;-91
2022/05/05 07:37:00;;;;;;;29.98;16.00;;;;;;;13.19;86.33;99112.41;5126253;27;20121;-91
2022/05/05 07:39:26;;;;;;;51.67;23.35;;;;;;;13.03;86.96;99087.97;5124606;27;20135;-92
2022/05/05 07:41:53;;;;;;;60.17;25.80;;;;;;;12.94;87.65;99113.16;5117232;27;20043;-92
2022/05/05 07:44:19;;;;;;;46.50;22.52;;;;;;;12.82;88.36;99106.41;5121633;27;20496;-91
2022/05/05 07:46:44;;;;;;;47.60;24.80;;;;;;;12.57;90.49;99108.06;5121929;27;20046;-92
2022/05/05 07:49:10;;;;;;;52.38;25.30;;;;;;;12.37;91.16;99109.53;5120913;27;20031;-91
2022/05/05 07:51:36;;;;;;;47.55;21.95;;;;;;;12.39;91.36;99098.84;5120063;27;20031;-91
2022/05/05 07:57:02;;;;;;;47.55;21.67;;;;;;;12.52;91.18;99117.09;5088246;27;20382;-92
2022/05/05 07:59:28;;;;;;;47.72;22.38;;;;;;;12.60;92.12;99131.97;5087659;28;20541;-92
2022/05/05 08:01:54;;;;;;;41.67;20.13;;;;;;;12.64;90.91;99139.88;5087446;28;20032;-91
2022/05/05 08:04:20;;;;;;;43.08;21.77;;;;;;;12.64;91.18;99130.97;5088411;28;20044;-92
2022/05/05 08:06:45;;;;;;;48.45;20.65;;;;;;;12.68;91.25;99132.63;5088390;28;20161;-91
2022/05/05 08:09:11;;;;;;;40.90;19.98;;;;;;;12.68;90.64;99122.84;5087813;28;20037;-92
2022/05/05 08:11:37;;;;;;;38.72;19.15;;;;;;;12.76;90.25;99138.63;5087689;28;20044;-91
2022/05/05 08:14:05;;;;;;;45.10;21.17;;;;;;;12.65;89.92;99127.41;5088050;28;20059;-90
2022/05/05 08:16:31;;;;;;;42.30;19.60;;;;;;;12.76;89.84;99148.44;5087838;28;20036;-90
2022/05/05 08:18:57;;;;;;;37.25;18.75;;;;;;;12.71;89.76;99130.75;5087891;28;20102;-90
2022/05/05 08:21:22;;;;;;;41.40;19.58;;;;;;;12.70;89.35;99123.66;5087943;28;20032;-91
2022/05/05 08:23:48;;;;;;;46.20;19.70;;;;;;;12.72;89.96;99120.97;5087418;28;20029;-92
2022/05/05 08:29:13;;;;;;;38.45;20.83;;;;;;;12.89;90.87;99148.00;5088118;27;20370;-90
2022/05/05 08:31:39;;;;;;;40.90;20.40;;;;;;;12.99;89.07;99137.94;5088041;28;20064;-92
2022/05/05 08:34:05;;;;;;;44.25;20.23;;;;;;;13.05;89.90;99139.53;5088558;28;20548;-91
2022/05/05 08:36:30;;;;;;;40.85;19.95;;;;;;;13.05;89.23;99127.03;5086601;28;20040;-90
2022/05/05 08:38:56;;;;;;;38.47;19.58;;;;;;;13.05;88.59;99124.38;5085356;28;20032;-91
2022/05/05 08:41:22;;;;;;;40.50;19.75;;;;;;;13.19;89.65;99137.31;5087621;28;20059;-90
2022/05/05 08:43:48;;;;;;;42.00;20.70;;;;;;;13.23;89.06;99122.94;5087884;28;20044;-91
2022/05/05 08:46:22;;;;;;;45.30;21.15;;;;;;;13.14;88.69;99118.75;5088068;28;20482;-92
2022/05/05 08:48:49;;;;;;;42.95;20.58;;;;;;;13.38;88.33;99132.28;5084998;28;20036;-91
2022/05/05 08:51:18;;;;;;;44.47;21.10;;;;;;;13.20;89.91;99130.16;5087556;28;20043;-91
2022/05/05 08:53:48;;;;;;;;;;;;;;;13.33;89.34;99142.22;5087099;28;20041;-90
2022/05/05 08:56:14;;;;;;;39.53;20.27;;;;;;;13.18;89.97;99135.53;5088027;28;19917;-91
2022/05/05 08:58:40;;;;;;;39.90;19.60;;;;;;;13.18;91.23;99148.88;5088274;28;20062;-89
2022/05/05 09:01:06;;;;;;;37.38;19.45;;;;;;;13.11;92.11;99147.34;5086538;28;20097;-91
2022/05/05 09:03:33;;;;;;;41.25;18.55;;;;;;;13.11;90.96;99148.22;5087273;28;20408;-89
2022/05/05 09:06:01;;;;;;;40.08;19.85;;;;;;;13.09;92.40;99147.38;5085511;28;20102;-90
2022/05/05 09:08:29;;;;;;;41.53;19.65;;;;;;;12.84;93.14;99136.59;5087591;28;20044;-91
2022/05/05 09:10:56;;;;;;;38.60;20.42;;;;;;;12.84;93.20;99151.75;5086747;28;20039;-91
2022/05/05 09:13:23;;;;;;;36.35;18.40;;;;;;;12.82;92.69;99161.59;5087592;28;20066;-91
2022/05/05 09:15:49;;;;;;;35.90;18.63;;;;;;;12.90;93.30;99156.88;5087177;28;20109;-91
2022/05/05 09:18:17;;;;;;;35.85;18.35;;;;;;;13.01;91.60;99149.44;5088171;28;20040;-91
2022/05/05 09:20:46;;;;;;;40.30;18.60;;;;;;;12.97;90.12;99145.13;5087809;28;20131;-90
2022/05/05 09:23:27;;;;;;;36.28;17.05;;;;;;;13.30;87.38;99156.56;5086809;28;20059;-89
2022/05/05 09:25:53;;;;;;;32.58;16.42;;;;;;;13.43;88.10;99169.53;5086991;28;20047;-92
2022/05/05 09:28:20;;;;;;;32.28;17.45;;;;;;;13.41;87.45;99152.69;5087647;28;20052;-90
2022/05/05 09:30:47;;;;;;;36.80;16.85;;;;;;;13.59;86.36;99168.09;5087780;28;20490;-91
2022/05/05 09:33:15;;;;;;;35.20;17.25;;;;;;;13.71;84.59;99172.16;5088274;28;20068;-91
2022/05/05 09:35:40;;;;;;;33.25;17.27;;;;;;;13.67;85.21;99171.38;5086498;28;20437;-89
2022/05/05 09:38:08;;;;;;;33.20;15.95;;;;;;;13.79;85.50;99177.25;5087367;28;20036;-90
2022/05/05 09:40:33;;;;;;;28.95;16.15;;;;;;;13.83;85.18;99181.56;5072538;28;20051;-90
2022/05/05 09:43:01;;;;;;;40.83;18.38;;;;;;;13.52;86.48;99156.72;5073701;28;20402;-91
2022/05/05 09:45:30;;;;;;;39.78;17.83;;;;;;;13.58;86.81;99163.69;5073183;28;20107;-92
2022/05/05 09:47:58;;;;;;;37.65;18.30;;;;;;;13.63;87.61;99188.44;5072517;28;20054;-91
2022/05/05 09:50:25;;;;;;;33.78;17.88;;;;;;;13.55;87.63;99187.81;5072948;28;20131;-90
2022/05/05 09:58:57;;;;;;;34.80;17.17;;;;;;;13.47;89.24;99184.53;5088587;27;20378;-90
2022/05/05 10:01:31;;;;;;;32.83;16.40;;;;;;;13.50;88.29;99187.97;5087974;28;20040;-91
2022/05/05 10:04:03;;;;;;;30.63;16.58;;;;;;;13.76;87.71;99184.44;5087536;28;20044;-90
2022/05/05 10:06:31;;;;;;;32.92;16.73;;;;;;;13.95;87.32;99190.03;5087637;28;20036;-89
2022/05/05 10:09:01;;;;;;;37.33;17.88;;;;;;;14.14;86.30;99179.59;5087462;28;20448;-90
2022/05/05 10:11:27;;;;;;;34.67;16.85;;;;;;;14.34;83.22;99176.22;5086431;28;20036;-89
2022/05/05 10:13:56;;;;;;;34.60;16.90;;;;;;;14.63;81.46;99174.28;5086888;28;20896;-89
2022/05/05 10:16:23;;;;;;;37.38;17.38;;;;;;;14.69;80.67;99162.50;5087757;28;20040;-90
2022/05/05 10:18:50;;;;;;;34.47;17.38;;;;;;;14.90;79.64;99166.19;5087431;28;20524;-91
2022/05/05 10:21:41;;;;;;;38.60;18.33;;;;;;;14.70;82.67;99178.50;5086769;28;20036;-90
2022/05/05 10:24:15;;;;;;;33.53;18.35;;;;;;;14.71;81.53;99176.69;5081893;28;20040;-89
2022/05/05 10:26:44;;;;;;;39.60;19.33;;;;;;;14.60;81.89;99166.38;5086462;28;20036;-89
2022/05/05 10:29:38;;;;;;;38.50;19.85;;;;;;;14.38;84.89;99183.19;5087203;28;20041;-90
2022/05/05 10:32:09;;;;;;;34.97;19.20;;;;;;;14.33;84.94;99170.91;5087257;28;20040;-91
2022/05/05 10:34:37;;;;;;;40.95;20.08;;;;;;;14.26;86.54;99158.69;5087044;28;20040;-92
2022/05/05 10:37:05;;;;;;;43.03;19.10;;;;;;;14.38;84.67;99166.28;5088066;28;20051;-91
2022/05/05 10:39:48;;;;;;;36.95;20.20;;;;;;;14.08;86.24;99160.22;5088306;28;20494;-91
2022/05/05 10:42:16;;;;;;;41.47;20.40;;;;;;;13.93;87.15;99159.81;5088014;28;20033;-90
2022/05/05 10:45:05;;;;;;;42.72;21.10;;;;;;;13.85;87.95;99169.03;5083183;28;20068;-90
2022/05/05 10:48:13;;;;;;;38.15;20.45;;;;;;;13.69;88.37;99163.31;5088454;28;20115;-92
2022/05/05 10:53:42;;;;;;;37.08;20.25;;;;;;;13.66;90.27;99150.03;5089142;27;20381;-92
2022/05/05 10:56:27;;;;;;;37.13;20.08;;;;;;;13.70;90.83;99152.56;5088702;28;20048;-92
2022/05/05 10:59:06;;;;;;;39.55;19.95;;;;;;;13.51;91.78;99146.97;5089360;28;20063;-92
2022/05/05 11:01:56;;;;;;;47.00;21.17;;;;;;;13.49;92.62;99148.84;5090153;28;20071;-93
2022/05/05 11:04:30;;;;;;;41.55;19.95;;;;;;;13.62;90.22;99143.97;5090657;28;20502;-95
2022/05/05 11:07:30;;;;;;;44.75;21.38;;;;;;;13.61;92.78;99144.88;5091376;28;20478;-96
2022/05/05 11:09:59;;;;;;;43.35;21.30;;;;;;;13.60;93.57;99148.47;5004483;28;20066;-94
2022/05/05 11:12:32;;;;;;;43.13;20.95;;;;;;;13.64;93.30;99136.75;5008686;28;20070;-95
2022/05/05 11:24:11;;;;;;;41.80;22.30;;;;;;;13.54;97.37;99125.50;5152468;27;20107;-93
2022/05/05 11:26:36;;;;;;;46.13;21.40;;;;;;;13.46;98.98;99114.19;5152535;27;20101;-94
2022/05/05 11:29:02;;;;;;;41.25;21.08;;;;;;;13.50;98.53;99098.94;5152582;27;20047;-93
2022/05/05 11:31:30;;;;;;;45.50;22.13;;;;;;;13.55;98.92;99103.22;5152628;27;20118;-93
2022/05/05 11:33:58;;;;;;;46.90;21.90;;;;;;;13.54;98.93;99095.22;5153229;27;20379;-95
2022/05/05 11:36:28;;;;;;;44.53;22.05;;;;;;;13.34;99.92;99072.72;5152644;27;20074;-93
2022/05/05 11:38:54;;;;;;;42.70;20.85;;;;;;;13.31;100.00;99063.94;5152966;27;20043;-95
2022/05/05 11:41:23;;;;;;;45.80;22.90;;;;;;;13.25;100.00;99051.66;5153120;27;20066;-94
2022/05/05 11:46:49;;;;;;;48.50;22.25;;;;;;;13.46;100.00;99049.19;5091984;27;20370;-95
2022/05/05 11:49:15;;;;;;;43.65;21.88;;;;;;;13.33;100.00;99017.56;5091915;28;20040;-93
2022/05/05 11:51:41;;;;;;;43.40;22.80;;;;;;;13.26;100.00;99016.00;5092216;28;20127;-93
2022/05/05 11:54:09;;;;;;;42.55;21.75;;;;;;;13.41;100.00;99013.78;5091181;28;20047;-94
2022/05/05 11:56:37;;;;;;;38.70;20.25;;;;;;;13.18;99.29;99009.16;5090702;28;20127;-95
2022/05/05 12:02:39;;;;;;;35.70;18.50;;;;;;;13.37;99.71;99053.06;5108022;27;20871;-92
2022/05/05 12:05:13;;;;;;;42.35;20.40;;;;;;;13.51;99.21;99053.47;5095134;28;20067;-95
2022/05/05 12:07:46;;;;;;;41.50;20.17;;;;;;;13.47;97.80;99053.63;5091475;28;20366;-91
2022/05/05 12:10:33;;;;;;;42.35;21.67;;;;;;;13.45;98.70;99050.13;5094958;28;20109;-94
2022/05/05 12:13:02;;;;;;;40.90;21.13;;;;;;;13.81;98.02;99039.06;5092143;28;20047;-92